Time;durP1;ratioP1;P1;durP2;ratioP2;P2;SDS_P1;SDS_P2;PMS_P1;PMS_P2;Temp;Humidity;BMP_temperature;BMP_pressure;BME280_temperature;BME280_humidity;BME280_pressure;Samples;Min_cycle;Max_cycle;Signal;HPM_P1;HPM_P2
2023/07/08 00:00:24;;;;;;;13.45;5.80;;;;;;;21.90;100.00;97573.09;5130522;27;20034;-73
2023/07/08 00:02:50;;;;;;;12.40;7.30;;;;;;;21.91;100.00;97574.81;5113633;27;20111;-74
2023/07/08 00:05:18;;;;;;;8.60;6.22;;;;;;;21.93;100.00;97567.31;5130688;27;20098;-74
2023/07/08 00:07:44;;;;;;;9.10;6.25;;;;;;;21.83;100.00;97566.56;5130904;27;20084;-74
2023/07/08 00:10:21;;;;;;;8.48;6.00;;;;;;;21.78;100.00;97560.75;5131013;27;20026;-74
2023/07/08 00:12:52;;;;;;;10.57;6.60;;;;;;;21.84;100.00;97568.25;5130851;27;20110;-73
2023/07/08 00:15:21;;;;;;;8.95;6.03;;;;;;;21.71;100.00;97561.59;5113407;28;20486;-73
2023/07/08 00:17:47;;;;;;;11.23;6.25;;;;;;;21.72;100.00;97569.56;5130915;27;20019;-73
2023/07/08 00:20:34;;;;;;;13.05;6.60;;;;;;;21.61;100.00;97573.47;5130703;28;20022;-73
2023/07/08 00:23:02;;;;;;;11.32;6.00;;;;;;;21.52;100.00;97573.59;5132120;27;20023;-73
2023/07/08 00:25:28;;;;;;;9.63;6.88;;;;;;;21.43;100.00;97574.56;5130539;27;20034;-73
2023/07/08 00:27:54;;;;;;;16.33;7.35;;;;;;;21.39;100.00;97581.31;5130535;27;20028;-73
2023/07/08 00:30:25;;;;;;;11.00;7.45;;;;;;;21.29;100.00;97573.28;5130395;27;20483;-75
2023/07/08 00:32:53;;;;;;;10.98;7.68;;;;;;;21.24;100.00;97581.06;5105910;27;20019;-74
2023/07/08 00:35:28;;;;;;;13.15;7.75;;;;;;;21.15;100.00;97578.47;5134398;27;20027;-75
2023/07/08 00:38:01;;;;;;;13.55;8.00;;;;;;;20.98;100.00;97572.88;5134832;27;20056;-74
2023/07/08 00:40:31;;;;;;;12.90;7.78;;;;;;;20.88;100.00;97574.84;5134787;27;20023;-74
2023/07/08 00:43:00;;;;;;;14.00;7.88;;;;;;;20.84;100.00;97578.88;5134932;27;20529;-74
2023/07/08 00:45:34;;;;;;;10.80;7.65;;;;;;;20.80;100.00;97582.06;5134283;27;20110;-74
2023/07/08 00:48:06;;;;;;;13.43;7.80;;;;;;;20.75;100.00;97576.25;5134524;27;20391;-74
2023/07/08 00:50:32;;;;;;;12.43;7.95;;;;;;;20.79;100.00;97575.81;5134311;27;20034;-73
2023/07/08 00:53:26;;;;;;;10.90;7.50;;;;;;;20.68;100.00;97576.03;5134747;27;20027;-74
2023/07/08 00:56:00;;;;;;;13.80;8.02;;;;;;;20.60;100.00;97570.53;5134632;27;20028;-74
2023/07/08 00:58:35;;;;;;;14.82;7.80;;;;;;;20.57;100.00;97576.28;5134215;27;20152;-74
2023/07/08 01:01:01;;;;;;;12.57;8.35;;;;;;;20.51;100.00;97576.91;5135573;27;20394;-74
2023/07/08 01:03:27;;;;;;;9.98;7.38;;;;;;;20.51;100.00;97571.47;5116937;27;20026;-74
2023/07/08 01:05:56;;;;;;;14.27;8.10;;;;;;;20.52;100.00;97567.72;5135422;27;20023;-74
2023/07/08 01:08:28;;;;;;;15.60;8.25;;;;;;;20.44;100.00;97576.66;5134142;27;20031;-74
2023/07/08 01:10:56;;;;;;;;;;;;;;;20.36;100.00;97578.47;5134731;27;20027;-74
2023/07/08 01:13:21;;;;;;;13.65;8.50;;;;;;;20.30;100.00;97576.38;5134121;27;19907;-74
2023/07/08 01:15:48;;;;;;;16.17;8.63;;;;;;;20.31;100.00;97592.50;5133821;27;20027;-74
2023/07/08 01:18:16;;;;;;;16.55;9.13;;;;;;;20.21;100.00;97575.38;5134322;27;20390;-74
2023/07/08 01:20:42;;;;;;;18.67;8.57;;;;;;;20.24;100.00;97591.38;5133759;27;20537;-73
2023/07/08 01:23:09;;;;;;;15.27;8.30;;;;;;;20.17;100.00;97595.72;5116913;27;20023;-73
2023/07/08 01:25:35;;;;;;;12.98;8.02;;;;;;;20.13;100.00;97590.75;5133843;27;20111;-74
2023/07/08 01:28:01;;;;;;;10.52;7.53;;;;;;;20.08;100.00;97579.50;5133809;27;20076;-73
2023/07/08 01:30:29;;;;;;;10.77;8.05;;;;;;;20.03;100.00;97588.94;5133895;27;20413;-75
2023/07/08 01:32:57;;;;;;;12.07;7.57;;;;;;;20.01;100.00;97577.38;5133434;27;20050;-73
2023/07/08 01:35:23;;;;;;;9.88;6.95;;;;;;;19.98;100.00;97574.97;5133734;27;20110;-73
2023/07/08 01:37:50;;;;;;;10.77;6.93;;;;;;;19.98;100.00;97564.13;5116208;27;20027;-74
2023/07/08 01:40:36;;;;;;;11.10;7.68;;;;;;;19.92;100.00;97570.16;5134902;27;20151;-74
2023/07/08 01:43:03;;;;;;;11.88;6.57;;;;;;;19.86;100.00;97564.47;5133887;27;20027;-74
2023/07/08 01:45:38;;;;;;;10.43;6.40;;;;;;;19.85;100.00;97560.91;5133256;27;20039;-74
2023/07/08 01:48:23;;;;;;;17.45;6.68;;;;;;;19.75;100.00;97560.09;5116285;27;20109;-74
2023/07/08 01:50:54;;;;;;;9.00;6.18;;;;;;;19.82;100.00;97563.91;5133080;27;20083;-74
2023/07/08 01:53:26;;;;;;;10.50;6.60;;;;;;;19.82;100.00;97566.63;5134591;27;20109;-74
2023/07/08 01:55:51;;;;;;;;;;;;;;;19.81;100.00;97561.38;5133549;27;20027;-74
2023/07/08 01:58:17;;;;;;;12.23;5.82;;;;;;;19.75;100.00;97562.81;5134928;27;19918;-74
2023/07/08 02:00:43;;;;;;;18.90;6.65;;;;;;;19.76;100.00;97569.09;5134274;27;20123;-74
2023/07/08 02:03:09;;;;;;;17.02;6.72;;;;;;;19.77;100.00;97570.81;5134511;27;20092;-74
2023/07/08 02:05:35;;;;;;;11.68;6.55;;;;;;;19.76;100.00;97560.94;5133253;27;20019;-74
2023/07/08 02:08:00;;;;;;;12.40;7.18;;;;;;;19.79;100.00;97566.94;5132723;27;20493;-75
2023/07/08 02:10:26;;;;;;;14.48;6.65;;;;;;;19.78;100.00;97561.69;5133080;27;20391;-74
2023/07/08 02:12:52;;;;;;;9.40;6.45;;;;;;;19.80;100.00;97563.22;5134032;27;20039;-74
2023/07/08 02:15:17;;;;;;;9.18;6.18;;;;;;;19.79;100.00;97569.66;5133000;27;20541;-74
2023/07/08 02:17:43;;;;;;;9.88;6.35;;;;;;;19.78;100.00;97567.94;5115463;27;20031;-74
2023/07/08 02:20:09;;;;;;;12.00;6.55;;;;;;;19.78;100.00;97561.69;5124309;27;20054;-74
2023/07/08 02:22:35;;;;;;;18.30;6.57;;;;;;;19.77;100.00;97563.53;5132906;27;20087;-74
2023/07/08 02:25:00;;;;;;;9.60;6.70;;;;;;;19.77;100.00;97565.38;5132618;27;20482;-73
2023/07/08 02:27:26;;;;;;;12.73;7.70;;;;;;;19.76;100.00;97574.53;5132817;27;20558;-74
2023/07/08 02:29:51;;;;;;;10.32;7.15;;;;;;;19.72;100.00;97573.97;5133432;27;20113;-74
2023/07/08 02:32:17;;;;;;;16.85;6.82;;;;;;;19.75;100.00;97573.66;5132758;27;20448;-74
2023/07/08 02:34:42;;;;;;;7.85;5.65;;;;;;;19.80;100.00;97575.94;5133610;27;20027;-74
2023/07/08 02:37:08;;;;;;;18.55;6.10;;;;;;;19.81;100.00;97573.06;5133464;27;20091;-74
2023/07/08 02:39:33;;;;;;;11.00;6.15;;;;;;;19.87;100.00;97572.44;5133790;27;20537;-74
2023/07/08 02:41:59;;;;;;;9.20;6.13;;;;;;;19.97;100.00;97575.97;5132129;27;20444;-74
2023/07/08 02:44:26;;;;;;;7.80;5.60;;;;;;;20.07;100.00;97577.78;5115175;27;20130;-74
2023/07/08 02:46:51;;;;;;;11.32;5.80;;;;;;;20.09;100.00;97578.50;5132068;27;20048;-74
2023/07/08 02:49:17;;;;;;;9.50;6.45;;;;;;;20.11;100.00;97569.19;5131999;27;20027;-74
2023/07/08 02:51:42;;;;;;;9.45;6.97;;;;;;;20.10;100.00;97572.88;5132192;27;20031;-74
2023/07/08 02:54:08;;;;;;;10.23;6.13;;;;;;;20.07;100.00;97577.78;5132106;27;20042;-74
2023/07/08 02:56:33;;;;;;;11.05;6.15;;;;;;;20.09;100.00;97571.16;5132907;27;20109;-74
2023/07/08 02:58:59;;;;;;;9.63;6.53;;;;;;;20.15;100.00;97583.31;5113653;27;20420;-75
2023/07/08 03:01:26;;;;;;;9.95;5.95;;;;;;;20.17;100.00;97579.44;5124701;27;20031;-74
2023/07/08 03:03:53;;;;;;;19.45;6.22;;;;;;;20.18;100.00;97585.72;5133161;27;20030;-74
2023/07/08 03:06:19;;;;;;;7.38;4.78;;;;;;;20.34;100.00;97591.34;5114993;27;20023;-75
2023/07/08 03:08:44;;;;;;;8.07;6.00;;;;;;;20.30;100.00;97590.78;5133069;27;20049;-74
2023/07/08 03:11:10;;;;;;;12.32;6.00;;;;;;;20.22;100.00;97592.53;5132884;27;20034;-74
2023/07/08 03:13:36;;;;;;;8.35;6.07;;;;;;;20.17;100.00;97595.72;5114538;27;20119;-74
2023/07/08 03:16:02;;;;;;;18.83;6.25;;;;;;;20.21;100.00;97601.72;5131553;27;20110;-74
2023/07/08 03:18:29;;;;;;;16.88;7.00;;;;;;;20.23;100.00;97599.69;5132832;27;20019;-74
2023/07/08 03:20:56;;;;;;;9.80;6.88;;;;;;;20.29;100.00;97605.41;5114402;27;20405;-74
2023/07/08 03:23:24;;;;;;;9.68;6.28;;;;;;;20.33;100.00;97606.78;5132732;27;20023;-75
2023/07/08 03:25:51;;;;;;;10.95;6.38;;;;;;;20.25;100.00;97611.25;5132770;27;20031;-74
2023/07/08 03:28:16;;;;;;;14.20;7.18;;;;;;;20.26;100.00;97602.13;5131117;27;20031;-74
2023/07/08 03:30:42;;;;;;;25.95;8.40;;;;;;;20.26;100.00;97602.13;5132713;27;20038;-75
2023/07/08 03:33:09;;;;;;;30.67;17.23;;;;;;;20.24;100.00;97598.69;5132219;27;20019;-74
2023/07/08 03:35:35;;;;;;;10.20;6.28;;;;;;;20.24;100.00;97606.84;5131308;27;20035;-74
2023/07/08 03:38:01;;;;;;;14.88;6.32;;;;;;;20.19;100.00;97612.72;5114033;27;20030;-74
2023/07/08 03:40:26;;;;;;;11.65;7.35;;;;;;;20.19;100.00;97614.56;5131476;27;20030;-75
2023/07/08 03:42:52;;;;;;;10.05;7.20;;;;;;;20.25;100.00;97613.97;5106924;28;20039;-75
2023/07/08 03:45:17;;;;;;;11.73;6.75;;;;;;;20.32;100.00;97615.97;5111534;28;20132;-75
2023/07/08 03:47:43;;;;;;;11.45;6.47;;;;;;;20.30;100.00;97611.69;5111668;28;20057;-75
2023/07/08 03:50:28;;;;;;;14.82;6.70;;;;;;;20.32;100.00;97615.09;5128495;27;20031;-75
2023/07/08 03:52:54;;;;;;;18.13;9.05;;;;;;;20.29;100.00;97615.41;5113907;27;20026;-75
2023/07/08 03:55:20;;;;;;;9.63;7.18;;;;;;;20.39;100.00;97617.06;5131169;27;20026;-75
2023/07/08 03:57:46;;;;;;;8.73;5.88;;;;;;;20.48;100.00;97621.56;5130882;27;20031;-75
2023/07/08 04:00:12;;;;;;;14.52;5.80;;;;;;;20.45;100.00;97616.44;5113569;27;20023;-75
2023/07/08 04:02:38;;;;;;;10.82;6.65;;;;;;;20.53;100.00;97618.38;5131733;27;20031;-75
2023/07/08 04:05:04;;;;;;;8.82;6.18;;;;;;;20.57;100.00;97625.22;5131882;27;20386;-75
2023/07/08 04:07:30;;;;;;;15.77;6.63;;;;;;;20.50;100.00;97622.25;5131587;27;20033;-75
2023/07/08 04:09:55;;;;;;;16.98;6.53;;;;;;;20.42;100.00;97626.75;5129726;27;20063;-74
2023/07/08 04:12:21;;;;;;;13.27;6.95;;;;;;;20.42;100.00;97626.75;5131839;27;20047;-75
2023/07/08 04:14:46;;;;;;;16.17;6.60;;;;;;;20.43;100.00;97621.16;5130387;27;20832;-74
2023/07/08 04:17:12;;;;;;;13.10;7.28;;;;;;;20.51;100.00;97636.69;5131849;27;20046;-75
2023/07/08 04:19:43;;;;;;;13.00;8.40;;;;;;;20.48;100.00;97626.13;5130391;27;20080;-74
2023/07/08 04:22:09;;;;;;;17.15;7.95;;;;;;;20.55;100.00;97632.66;5094191;28;20036;-75
2023/07/08 04:24:35;;;;;;;16.92;8.38;;;;;;;20.55;100.00;97628.06;5127536;28;20414;-75
2023/07/08 04:27:00;;;;;;;13.95;7.68;;;;;;;20.64;100.00;97625.44;5113180;28;20402;-75
2023/07/08 04:29:26;;;;;;;15.68;8.00;;;;;;;20.60;100.00;97627.63;5131546;27;20023;-74
2023/07/08 04:31:51;;;;;;;13.70;7.63;;;;;;;20.61;100.00;97623.03;5111249;27;20023;-75
2023/07/08 04:34:17;;;;;;;17.33;8.02;;;;;;;20.64;100.00;97622.72;5124807;27;20451;-75
2023/07/08 04:36:46;;;;;;;17.58;8.50;;;;;;;20.79;100.00;97619.31;5113044;28;20035;-74
2023/07/08 04:39:23;;;;;;;19.17;9.30;;;;;;;20.93;100.00;97620.59;5130286;27;20019;-75
2023/07/08 04:41:49;;;;;;;16.75;8.60;;;;;;;20.96;100.00;97607.53;5113069;28;20114;-75
2023/07/08 04:44:16;;;;;;;15.52;7.80;;;;;;;21.07;100.00;97618.16;5109912;27;20127;-74
2023/07/08 04:46:41;;;;;;;13.25;7.60;;;;;;;21.13;100.00;97622.16;5125093;27;20023;-74
2023/07/08 04:49:09;;;;;;;13.98;7.82;;;;;;;21.06;100.00;97616.47;5131899;27;20083;-74
2023/07/08 04:51:35;;;;;;;11.82;7.20;;;;;;;20.99;100.00;97609.09;5130182;27;20023;-74
2023/07/08 04:54:01;;;;;;;17.38;7.90;;;;;;;21.22;100.00;97614.91;5130160;27;20102;-74
2023/07/08 04:56:37;;;;;;;14.98;8.45;;;;;;;21.79;100.00;97616.09;5112927;28;20054;-75
2023/07/08 04:59:03;;;;;;;15.77;9.18;;;;;;;22.91;100.00;97601.94;5130121;28;20502;-74
2023/07/08 05:01:29;;;;;;;18.35;10.77;;;;;;;23.84;100.00;97594.97;5130236;28;20084;-74
2023/07/08 05:03:54;;;;;;;11.38;6.82;;;;;;;24.49;100.00;97600.13;5131344;27;20413;-74
2023/07/08 05:06:20;;;;;;;17.88;7.43;;;;;;;24.57;100.00;97598.22;5131131;27;20027;-74
2023/07/08 05:08:45;;;;;;;16.70;6.43;;;;;;;24.24;100.00;97597.53;5130170;27;20046;-74
2023/07/08 05:11:11;;;;;;;10.75;6.57;;;;;;;25.00;100.00;97604.94;5129897;27;20031;-74
2023/07/08 05:13:36;;;;;;;15.30;6.78;;;;;;;26.04;100.00;97604.91;5116428;28;20035;-75
2023/07/08 05:16:02;;;;;;;9.52;6.53;;;;;;;26.15;100.00;97612.66;5109314;28;20066;-75
2023/07/08 05:18:27;;;;;;;8.65;6.65;;;;;;;25.78;100.00;97610.00;5122054;27;20517;-75
2023/07/08 05:20:54;;;;;;;12.25;7.25;;;;;;;26.43;100.00;97604.59;5134063;27;20030;-75
2023/07/08 05:23:20;;;;;;;10.07;6.93;;;;;;;27.90;100.00;97594.56;5116646;27;20027;-75
2023/07/08 05:25:46;;;;;;;19.90;11.75;;;;;;;28.73;100.00;97589.91;5135040;27;20042;-74
2023/07/08 05:28:11;;;;;;;15.40;7.13;;;;;;;29.70;95.32;97598.47;5133340;27;20103;-75
2023/07/08 05:30:40;;;;;;;11.32;7.00;;;;;;;30.05;88.05;97580.63;5116464;27;20386;-74
2023/07/08 05:33:05;;;;;;;13.35;6.95;;;;;;;30.33;88.44;97583.88;5116245;27;20038;-75
2023/07/08 05:35:31;;;;;;;8.30;6.10;;;;;;;31.19;81.05;97578.78;5133741;27;20035;-75
2023/07/08 05:37:56;;;;;;;14.05;5.35;;;;;;;31.90;69.24;97570.91;5134881;27;20023;-74
2023/07/08 05:40:22;;;;;;;13.02;5.55;;;;;;;32.04;70.20;97574.44;5133523;27;20027;-75
2023/07/08 05:42:47;;;;;;;12.20;5.70;;;;;;;32.45;67.30;97579.28;5133327;27;20070;-74
2023/07/08 05:45:13;;;;;;;9.50;5.63;;;;;;;32.96;62.78;97576.03;5134387;27;20104;-74
2023/07/08 05:47:38;;;;;;;18.58;7.78;;;;;;;33.47;61.38;97575.47;5132959;27;20458;-74
2023/07/08 05:50:04;;;;;;;10.02;5.80;;;;;;;33.38;58.16;97580.50;5133240;27;20025;-74
2023/07/08 05:52:30;;;;;;;7.40;5.20;;;;;;;33.26;59.09;97576.84;5115710;27;20027;-74
2023/07/08 05:54:55;;;;;;;9.30;5.07;;;;;;;33.87;56.86;97572.88;5126270;27;20400;-74
2023/07/08 05:57:21;;;;;;;12.68;7.07;;;;;;;34.26;55.27;97575.75;5133091;27;20031;-75
2023/07/08 05:59:46;;;;;;;7.47;4.57;;;;;;;34.03;51.05;97570.19;5115629;27;20500;-74
2023/07/08 06:02:12;;;;;;;8.07;4.88;;;;;;;34.52;50.63;97577.13;5132871;27;20031;-73
2023/07/08 06:04:39;;;;;;;10.73;4.75;;;;;;;35.01;48.05;97575.63;5113111;27;20115;-74
2023/07/08 06:07:05;;;;;;;8.98;6.57;;;;;;;34.83;47.18;97571.13;5126949;27;20029;-74
2023/07/08 06:09:30;;;;;;;12.75;7.25;;;;;;;35.11;44.55;97566.66;5115236;27;20447;-74
2023/07/08 06:11:56;;;;;;;12.68;5.10;;;;;;;33.96;46.22;97571.41;5134056;27;20031;-74
2023/07/08 06:14:21;;;;;;;6.38;3.92;;;;;;;33.63;47.22;97572.84;5133946;27;20023;-74
2023/07/08 06:16:47;;;;;;;13.77;7.50;;;;;;;33.65;44.74;97565.16;5132282;27;20023;-74
2023/07/08 06:19:14;;;;;;;5.18;4.20;;;;;;;34.39;43.48;97560.75;5132618;27;20034;-74
2023/07/08 06:21:40;;;;;;;11.82;7.28;;;;;;;35.05;42.45;97567.63;5115217;27;20027;-74
2023/07/08 06:24:07;;;;;;;10.63;4.25;;;;;;;35.00;42.27;97565.59;5115095;27;20096;-74
2023/07/08 06:26:32;;;;;;;14.45;4.53;;;;;;;34.40;43.22;97573.53;5132373;27;20035;-74
2023/07/08 06:28:58;;;;;;;12.68;5.07;;;;;;;32.93;45.54;97579.25;5132178;27;20024;-74
2023/07/08 06:31:23;;;;;;;8.02;3.83;;;;;;;32.37;47.29;97582.34;5116057;27;20023;-74
2023/07/08 06:33:49;;;;;;;21.65;11.10;;;;;;;31.18;52.26;97588.16;5112736;28;20024;-73
2023/07/08 06:36:14;;;;;;;8.65;4.80;;;;;;;30.30;53.56;97600.88;5119617;27;20020;-73
2023/07/08 06:38:40;;;;;;;11.23;3.85;;;;;;;30.08;55.97;97594.81;5131761;27;20074;-73
2023/07/08 06:41:05;;;;;;;9.20;4.47;;;;;;;29.99;58.31;97598.03;5132170;27;20023;-73
2023/07/08 06:43:31;;;;;;;7.93;4.35;;;;;;;30.98;54.27;97591.03;5132101;27;20491;-74
2023/07/08 06:45:56;;;;;;;10.57;3.97;;;;;;;31.68;52.16;97584.34;5131782;27;20138;-75
2023/07/08 06:48:24;;;;;;;44.97;30.90;;;;;;;31.47;54.23;97593.00;5132029;27;20232;-75
2023/07/08 06:50:49;;;;;;;15.55;11.90;;;;;;;31.26;55.37;97600.84;5131944;27;20027;-75
2023/07/08 06:53:15;;;;;;;13.25;5.43;;;;;;;30.67;54.43;97601.19;5133288;27;20031;-75
2023/07/08 06:55:41;;;;;;;8.68;3.90;;;;;;;29.90;57.57;97610.38;5114690;27;20035;-75
2023/07/08 06:58:06;;;;;;;66.80;38.38;;;;;;;29.80;58.91;97605.25;5105505;27;20031;-75
2023/07/08 07:00:32;;;;;;;32.25;18.42;;;;;;;30.01;56.24;97604.16;5132304;27;20220;-75
2023/07/08 07:02:57;;;;;;;4.13;3.17;;;;;;;30.62;54.14;97599.94;5129746;27;20436;-74
2023/07/08 07:05:23;;;;;;;12.23;6.63;;;;;;;32.10;49.86;97581.81;5126732;27;20079;-73
2023/07/08 07:07:49;;;;;;;11.73;7.65;;;;;;;33.39;45.98;97582.19;5131079;27;20058;-74
2023/07/08 07:10:14;;;;;;;26.83;13.35;;;;;;;34.62;43.88;97571.81;5131904;27;20038;-74
2023/07/08 07:12:40;;;;;;;6.43;3.70;;;;;;;35.62;41.05;97577.63;5132907;27;20031;-74
2023/07/08 07:15:06;;;;;;;7.20;4.25;;;;;;;36.52;39.02;97570.91;5131230;27;20034;-74
2023/07/08 07:17:31;;;;;;;6.90;3.72;;;;;;;36.72;38.35;97571.16;5115320;27;20072;-74
2023/07/08 07:19:57;;;;;;;4.10;3.65;;;;;;;37.00;38.00;97582.13;5111913;28;20031;-74
2023/07/08 07:22:22;;;;;;;22.42;2.78;;;;;;;37.54;36.66;97574.59;5125756;27;20041;-73
2023/07/08 07:24:48;;;;;;;3.42;2.78;;;;;;;37.00;36.28;97570.13;5116674;27;20019;-75
2023/07/08 07:27:14;;;;;;;8.65;3.33;;;;;;;37.16;36.00;97566.38;5132389;27;20019;-74
2023/07/08 07:29:45;;;;;;;4.55;3.00;;;;;;;37.05;36.52;97578.53;5132420;27;20020;-74
2023/07/08 07:32:11;;;;;;;9.18;2.63;;;;;;;36.78;37.05;97589.63;5131064;27;20393;-73
2023/07/08 07:34:40;;;;;;;28.02;5.47;;;;;;;37.04;36.80;97588.84;5113839;27;20026;-73
2023/07/08 07:37:06;;;;;;;6.93;3.13;;;;;;;36.80;36.89;97596.63;5130769;27;20030;-73
2023/07/08 07:39:32;;;;;;;6.82;3.15;;;;;;;37.02;36.57;97595.78;5130996;27;20019;-73
2023/07/08 07:41:57;;;;;;;9.15;5.53;;;;;;;36.62;37.28;97593.34;5130694;27;20034;-73
2023/07/08 07:44:24;;;;;;;21.08;13.45;;;;;;;36.03;38.44;97600.53;5113350;27;20054;-73
2023/07/08 07:46:52;;;;;;;2.92;2.58;;;;;;;34.19;39.61;97600.03;5114312;27;20497;-73
2023/07/08 07:49:17;;;;;;;3.78;2.70;;;;;;;32.69;42.40;97606.91;5130561;27;20027;-73
2023/07/08 07:51:43;;;;;;;5.53;2.80;;;;;;;31.90;44.32;97614.38;5113789;27;20501;-72
2023/07/08 07:54:09;;;;;;;7.15;3.55;;;;;;;31.05;46.82;97613.09;5131104;27;20027;-74
2023/07/08 07:56:35;;;;;;;7.72;2.60;;;;;;;31.76;47.23;97618.31;5099958;28;20028;-74
2023/07/08 07:59:00;;;;;;;3.63;2.67;;;;;;;31.97;46.14;97615.13;5109995;28;20081;-74
2023/07/08 08:01:26;;;;;;;4.63;3.10;;;;;;;31.32;48.33;97617.38;5107422;27;20118;-74
2023/07/08 08:03:52;;;;;;;6.70;4.45;;;;;;;31.01;49.37;97614.66;5130566;27;20035;-74
2023/07/08 08:06:18;;;;;;;18.15;8.13;;;;;;;31.67;48.99;97615.00;5130545;27;20446;-74
2023/07/08 08:08:45;;;;;;;9.43;5.20;;;;;;;31.13;49.91;97612.88;5130415;27;20118;-74
2023/07/08 08:11:10;;;;;;;8.00;3.80;;;;;;;31.15;51.66;97621.78;5113292;27;20031;-74
2023/07/08 08:13:36;;;;;;;6.35;3.17;;;;;;;31.74;49.62;97614.94;5124182;27;20028;-74
2023/07/08 08:16:02;;;;;;;13.90;9.73;;;;;;;31.55;48.13;97616.81;5109901;28;20042;-74
2023/07/08 08:18:27;;;;;;;9.25;6.70;;;;;;;31.36;48.16;97613.09;5106998;27;20030;-74
2023/07/08 08:20:53;;;;;;;8.13;6.03;;;;;;;32.09;46.79;97610.56;5131411;27;20037;-75
2023/07/08 08:23:18;;;;;;;13.00;3.53;;;;;;;31.82;48.57;97614.66;5131800;27;20534;-74
2023/07/08 08:25:44;;;;;;;6.93;3.53;;;;;;;32.01;48.34;97616.38;5113104;28;20399;-74
2023/07/08 08:28:09;;;;;;;20.83;3.42;;;;;;;32.64;47.20;97623.34;5130052;28;20069;-75
2023/07/08 08:30:35;;;;;;;3.92;2.67;;;;;;;32.43;47.53;97622.94;5130687;28;20226;-75
2023/07/08 08:33:01;;;;;;;6.03;2.13;;;;;;;32.07;49.02;97626.56;5130383;28;20031;-74
2023/07/08 08:35:26;;;;;;;12.73;2.80;;;;;;;31.63;51.83;97633.97;5130347;27;20090;-75
2023/07/08 08:37:53;;;;;;;6.97;2.80;;;;;;;31.82;49.04;97628.47;5113136;28;20027;-75
2023/07/08 08:40:20;;;;;;;6.45;3.05;;;;;;;31.85;55.56;97636.34;5130481;28;20041;-74
2023/07/08 08:42:59;;;;;;;4.43;3.03;;;;;;;33.79;47.30;97637.91;5130391;27;20034;-75
2023/07/08 08:45:26;;;;;;;27.35;5.68;;;;;;;35.88;41.99;97626.22;5112954;28;20126;-75
2023/07/08 08:47:56;;;;;;;6.50;2.97;;;;;;;36.94;39.42;97625.84;5130137;27;20406;-75
2023/07/08 08:50:33;;;;;;;5.20;2.75;;;;;;;36.81;39.30;97617.00;5130326;28;20032;-75
2023/07/08 08:53:02;;;;;;;6.53;2.67;;;;;;;37.15;38.69;97610.19;5131291;27;20031;-75
2023/07/08 08:55:28;;;;;;;6.70;3.40;;;;;;;36.35;40.50;97621.13;5132471;27;20034;-75
2023/07/08 08:58:06;;;;;;;5.90;3.10;;;;;;;35.61;40.32;97614.91;5134354;27;20027;-75
2023/07/08 09:00:44;;;;;;;6.40;2.70;;;;;;;34.42;42.83;97618.59;5117064;27;20612;-75
2023/07/08 09:03:27;;;;;;;4.38;2.67;;;;;;;34.98;42.00;97619.81;5134049;27;20019;-74
2023/07/08 09:05:54;;;;;;;5.25;3.58;;;;;;;36.27;40.73;97621.56;5117003;27;20046;-74
2023/07/08 09:08:35;;;;;;;15.23;3.72;;;;;;;35.68;42.19;97621.16;5133670;27;20494;-75
2023/07/08 09:11:06;;;;;;;6.07;3.97;;;;;;;35.28;42.60;97626.81;5134147;27;20031;-75
2023/07/08 09:13:32;;;;;;;;;;;;;;;34.97;44.79;97623.66;5134558;27;20481;-74
2023/07/08 09:16:16;;;;;;;6.22;3.67;;;;;;;35.72;41.90;97616.75;5116804;27;19968;-75
2023/07/08 09:19:03;;;;;;;4.47;3.10;;;;;;;36.98;38.92;97614.16;5133998;27;20102;-74
2023/07/08 09:21:37;;;;;;;5.35;2.80;;;;;;;34.79;40.85;97610.81;5104889;28;20402;-75
2023/07/08 09:24:09;;;;;;;8.55;3.15;;;;;;;33.47;45.89;97620.69;5114518;28;20041;-74
2023/07/08 09:26:35;;;;;;;6.50;3.05;;;;;;;33.53;45.66;97622.50;5126115;27;20030;-74
2023/07/08 09:29:04;;;;;;;10.98;6.78;;;;;;;34.14;44.23;97611.03;5133723;27;20023;-74
2023/07/08 09:31:31;;;;;;;9.07;4.25;;;;;;;35.41;41.65;97613.69;5133528;27;20027;-74
2023/07/08 09:34:11;;;;;;;11.23;4.20;;;;;;;34.57;44.53;97607.81;5133358;27;20055;-75
2023/07/08 09:36:41;;;;;;;7.00;3.05;;;;;;;35.09;43.62;97610.59;5134834;27;20034;-74
2023/07/08 09:39:11;;;;;;;7.43;2.88;;;;;;;34.89;42.36;97607.38;5132031;27;20525;-74
2023/07/08 09:41:37;;;;;;;7.55;3.00;;;;;;;35.54;42.03;97586.34;5127055;27;20038;-74
2023/07/08 09:44:13;;;;;;;4.38;2.67;;;;;;;37.03;39.35;97589.13;5126041;27;20483;-75
2023/07/08 09:46:38;;;;;;;6.55;2.95;;;;;;;38.60;36.58;97577.28;5116211;27;20063;-75
2023/07/08 09:49:23;;;;;;;5.18;2.60;;;;;;;38.83;36.36;97572.09;5134428;27;20107;-75
2023/07/08 09:51:50;;;;;;;3.75;2.60;;;;;;;39.31;34.87;97575.63;5133330;27;20031;-75
2023/07/08 09:54:17;;;;;;;3.72;2.83;;;;;;;39.22;35.03;97571.66;5115596;27;20406;-73
2023/07/08 09:56:52;;;;;;;6.82;3.25;;;;;;;40.01;33.90;97567.22;5133159;27;20092;-73
2023/07/08 09:59:32;;;;;;;7.20;3.28;;;;;;;40.72;32.97;97569.88;5132730;27;20482;-74
2023/07/08 10:02:03;;;;;;;5.70;2.70;;;;;;;42.37;30.64;97559.69;5132824;27;20394;-73
2023/07/08 10:04:29;;;;;;;13.10;3.20;;;;;;;41.03;31.90;97563.00;5110826;28;20079;-74
2023/07/08 10:06:55;;;;;;;4.10;2.70;;;;;;;41.34;32.42;97562.81;5111189;27;20055;-73
2023/07/08 10:09:24;;;;;;;7.85;3.13;;;;;;;42.71;30.33;97553.94;5132318;27;20106;-74
2023/07/08 10:11:58;;;;;;;5.15;2.78;;;;;;;42.50;30.57;97556.16;5133044;27;20026;-75
2023/07/08 10:14:39;;;;;;;4.10;2.90;;;;;;;42.97;29.67;97559.00;5112588;27;20031;-74
2023/07/08 10:17:05;;;;;;;4.85;3.25;;;;;;;43.93;29.02;97565.16;5104851;28;20023;-74
2023/07/08 10:19:30;;;;;;;3.38;2.80;;;;;;;44.05;28.63;97557.88;5130941;27;20374;-74
2023/07/08 10:22:15;;;;;;;8.77;3.35;;;;;;;44.48;27.88;97566.09;5132526;27;20060;-74
2023/07/08 10:24:56;;;;;;;15.82;12.68;;;;;;;44.03;28.08;97546.03;5115058;27;20023;-74
2023/07/08 10:27:41;;;;;;;;;;;;;;;45.15;27.62;97559.63;5133851;27;20031;-74
2023/07/08 10:30:06;;;;;;;6.47;3.58;;;;;;;44.57;27.26;97542.50;5117366;27;19916;-74
2023/07/08 10:32:58;;;;;;;8.25;3.70;;;;;;;43.05;29.10;97549.00;5116135;27;20488;-75
2023/07/08 10:35:39;;;;;;;7.57;4.03;;;;;;;41.28;31.43;97556.41;5115747;27;20042;-74
2023/07/08 10:38:10;;;;;;;4.68;3.40;;;;;;;40.21;32.30;97551.53;5110915;27;20494;-75
2023/07/08 10:41:00;;;;;;;5.30;3.03;;;;;;;40.57;32.13;97542.72;5133175;27;20398;-75
2023/07/08 10:44:01;;;;;;;10.55;3.63;;;;;;;40.21;33.37;97543.09;5132077;27;20019;-76
2023/07/08 10:46:33;;;;;;;9.88;3.10;;;;;;;41.42;30.65;97537.78;5133470;27;20131;-75
2023/07/08 10:49:08;;;;;;;3.88;3.25;;;;;;;41.23;31.06;97536.75;5131834;27;20030;-75
2023/07/08 10:52:05;;;;;;;3.78;3.17;;;;;;;42.00;29.95;97529.38;5114874;27;20042;-75
2023/07/08 10:54:39;;;;;;;15.35;3.45;;;;;;;41.98;29.56;97521.25;5098304;27;20039;-74
2023/07/08 10:57:50;;;;;;;3.72;3.03;;;;;;;42.27;29.84;97532.50;5133227;27;20026;-74
2023/07/08 11:00:37;;;;;;;8.70;3.85;;;;;;;42.11;30.20;97514.94;5052863;28;20060;-74
2023/07/08 11:03:28;;;;;;;8.35;4.57;;;;;;;42.38;29.72;97524.78;5131847;27;20027;-75
2023/07/08 11:06:02;;;;;;;7.90;3.17;;;;;;;42.65;29.72;97525.03;5128998;27;20030;-75
2023/07/08 11:08:28;;;;;;;7.15;3.45;;;;;;;41.82;30.45;97518.91;5105195;28;20043;-73
2023/07/08 11:11:09;;;;;;;5.72;3.15;;;;;;;41.90;30.76;97515.47;5093976;28;20035;-73
2023/07/08 11:13:37;;;;;;;5.60;3.63;;;;;;;42.21;30.87;97522.44;5093971;28;20481;-74
2023/07/08 11:16:34;;;;;;;6.38;4.50;;;;;;;42.67;29.94;97519.97;5114184;27;20411;-74
2023/07/08 11:19:12;;;;;;;6.57;3.22;;;;;;;42.62;29.91;97511.56;5123983;27;20049;-74
2023/07/08 11:21:49;;;;;;;5.95;3.33;;;;;;;42.17;29.52;97515.75;5114319;27;20475;-74
2023/07/08 11:24:31;;;;;;;4.20;3.45;;;;;;;41.84;29.70;97534.31;5131473;27;20087;-74
2023/07/08 11:27:00;;;;;;;8.00;3.42;;;;;;;41.44;30.12;97512.19;5131386;27;20034;-74
2023/07/08 11:29:35;;;;;;;20.60;16.52;;;;;;;41.29;30.92;97526.31;5131309;27;20062;-74
2023/07/08 11:32:02;;;;;;;6.97;5.32;;;;;;;41.96;30.35;97522.72;5113818;27;20030;-75
2023/07/08 11:34:28;;;;;;;10.98;7.28;;;;;;;41.28;31.15;97521.84;5131253;27;20398;-75